Time;durP1;ratioP1;P1;durP2;ratioP2;P2;SDS_P1;SDS_P2;PMS_P1;PMS_P2;Temp;Humidity;BMP_temperature;BMP_pressure;BME280_temperature;BME280_humidity;BME280_pressure;Samples;Min_cycle;Max_cycle;Signal;HPM_P1;HPM_P2
2021/03/06 00:00:30;;;;;;;5.12;2.75;;;;;;;-0.73;76.17;100414.45;1754711;81;21443;-72
2021/03/06 00:02:58;;;;;;;4.45;2.67;;;;;;;-0.71;76.13;100416.53;1710424;81;21793;-72
2021/03/06 00:05:27;;;;;;;5.15;2.67;;;;;;;-0.72;76.15;100411.80;1757350;81;21151;-72
2021/03/06 00:07:55;;;;;;;4.67;2.80;;;;;;;-0.74;76.17;100407.12;1759361;81;21060;-72
2021/03/06 00:10:25;;;;;;;4.58;2.40;;;;;;;-0.76;76.16;100408.92;1732921;81;21162;-72
2021/03/06 00:12:53;;;;;;;7.15;2.60;;;;;;;-0.80;76.20;100413.78;1742044;81;21081;-72
2021/03/06 00:15:26;;;;;;;4.62;2.70;;;;;;;-0.83;76.26;100416.94;1702277;82;21887;-72
2021/03/06 00:17:54;;;;;;;4.00;2.60;;;;;;;-0.84;76.30;100412.20;1721867;82;21073;-72
2021/03/06 00:20:22;;;;;;;5.28;2.30;;;;;;;-0.85;76.40;100416.99;1711279;81;21354;-72
2021/03/06 00:22:50;;;;;;;4.10;2.50;;;;;;;-0.87;76.35;100418.34;1747998;82;21167;-72
2021/03/06 00:25:19;;;;;;;4.03;2.40;;;;;;;-0.87;76.33;100417.47;1746221;82;21120;-72
2021/03/06 00:27:47;;;;;;;4.42;2.52;;;;;;;-0.85;76.31;100417.44;1748100;82;22064;-71
2021/03/06 00:30:17;;;;;;;6.42;2.90;;;;;;;-0.88;76.26;100414.02;1724973;82;21515;-71
2021/03/06 00:32:45;;;;;;;6.08;2.87;;;;;;;-0.88;76.18;100417.06;1728843;82;21106;-71
2021/03/06 00:35:14;;;;;;;5.58;3.10;;;;;;;-0.87;76.15;100415.75;1737264;81;21077;-72
2021/03/06 00:37:43;;;;;;;6.65;4.37;;;;;;;-0.87;75.90;100401.91;1741999;82;21366;-72
2021/03/06 00:40:12;;;;;;;5.42;4.12;;;;;;;-0.85;75.51;100410.52;1741716;82;22926;-72
2021/03/06 00:42:40;;;;;;;7.22;4.92;;;;;;;-0.81;75.45;100408.66;1741918;82;21135;-71
2021/03/06 00:45:10;;;;;;;6.35;3.83;;;;;;;-0.80;75.22;100402.12;1728414;82;21488;-72
2021/03/06 00:47:38;;;;;;;8.68;6.40;;;;;;;-0.77;74.89;100404.63;1718239;82;21651;-72
2021/03/06 00:50:12;;;;;;;7.00;4.92;;;;;;;-0.77;74.68;100403.75;1741807;82;21084;-71
2021/03/06 00:52:40;;;;;;;6.37;4.62;;;;;;;-0.78;74.73;100396.87;1706018;83;22057;-71
2021/03/06 00:55:11;;;;;;;5.55;3.95;;;;;;;-0.77;74.79;100403.75;1720462;82;21117;-71
2021/03/06 00:57:39;;;;;;;6.92;3.80;;;;;;;-0.78;74.72;100393.83;1758239;80;21122;-70
2021/03/06 01:00:09;;;;;;;4.70;2.35;;;;;;;-0.81;74.65;100396.53;1728561;82;21581;-71
2021/03/06 01:02:37;;;;;;;3.95;2.10;;;;;;;-0.85;74.74;100408.37;1721219;82;21069;-71
2021/03/06 01:05:07;;;;;;;4.50;2.10;;;;;;;-0.92;74.81;100414.19;1743302;81;22029;-71
2021/03/06 01:07:35;;;;;;;4.42;2.10;;;;;;;-0.97;74.88;100406.53;1748221;82;21105;-71
2021/03/06 01:10:11;;;;;;;4.65;1.90;;;;;;;-0.97;74.72;100410.88;1737335;82;21073;-71
2021/03/06 01:12:39;;;;;;;5.72;2.15;;;;;;;-0.96;74.61;100411.30;1733435;80;21168;-71
2021/03/06 01:15:09;;;;;;;4.85;2.10;;;;;;;-0.93;74.49;100413.79;1726582;82;21064;-72
2021/03/06 01:17:36;;;;;;;3.58;2.12;;;;;;;-0.92;74.40;100411.14;1731865;82;22055;-71
2021/03/06 01:20:06;;;;;;;4.30;2.12;;;;;;;-0.91;74.30;100407.65;1739904;82;21088;-71
2021/03/06 01:22:34;;;;;;;4.40;2.33;;;;;;;-0.90;74.27;100400.72;1691035;83;21069;-71
2021/03/06 01:25:05;;;;;;;3.70;2.30;;;;;;;-0.94;74.28;100397.84;1736278;82;21065;-71
2021/03/06 01:27:33;;;;;;;3.52;2.10;;;;;;;-0.96;74.36;100395.30;1726214;82;21148;-71
2021/03/06 01:30:01;;;;;;;5.40;2.75;;;;;;;-0.98;74.43;100399.66;1749566;82;22064;-72
2021/03/06 01:32:29;;;;;;;2.90;1.85;;;;;;;-1.00;74.54;100404.05;1749011;82;21164;-71
2021/03/06 01:34:58;;;;;;;5.92;2.22;;;;;;;-1.04;74.66;100404.21;1745694;82;21160;-71
2021/03/06 01:37:26;;;;;;;5.47;2.30;;;;;;;-1.07;74.69;100413.36;1748218;82;21369;-71
2021/03/06 01:39:53;;;;;;;4.92;2.40;;;;;;;-1.12;74.68;100410.08;1744300;82;21484;-71
2021/03/06 01:42:22;;;;;;;4.25;2.33;;;;;;;-1.13;74.66;100409.23;1723557;82;22091;-71
2021/03/06 01:44:51;;;;;;;4.97;2.70;;;;;;;-1.12;74.67;100406.19;1735707;82;21591;-71
2021/03/06 01:47:19;;;;;;;6.15;2.42;;;;;;;-1.10;74.58;100412.16;1720840;82;21120;-71
2021/03/06 01:49:47;;;;;;;5.42;2.75;;;;;;;-1.08;74.58;100406.48;1743332;81;21497;-71
2021/03/06 01:52:16;;;;;;;3.40;2.05;;;;;;;-1.07;74.53;100402.53;1728548;80;21108;-71
2021/03/06 01:54:45;;;;;;;3.87;2.17;;;;;;;-1.06;74.54;100403.38;1725060;82;22073;-71
2021/03/06 01:57:13;;;;;;;4.47;2.60;;;;;;;-1.06;74.53;100407.27;1754113;81;21078;-71
2021/03/06 01:59:41;;;;;;;5.25;2.50;;;;;;;-1.08;74.57;100421.58;1742233;81;21161;-71
2021/03/06 02:02:08;;;;;;;3.77;2.30;;;;;;;-1.11;74.62;100426.87;1723418;82;21116;-72
2021/03/06 02:04:38;;;;;;;3.85;2.05;;;;;;;-1.16;74.72;100430.91;1729559;82;21476;-72
2021/03/06 02:07:06;;;;;;;4.55;2.35;;;;;;;-1.18;74.76;100437.86;1748280;82;22062;-70
2021/03/06 02:09:33;;;;;;;5.37;2.77;;;;;;;-1.21;74.70;100434.53;1748371;82;21081;-71
2021/03/06 02:12:12;;;;;;;6.67;2.58;;;;;;;-1.23;74.73;100437.17;1748617;80;21104;-71
2021/03/06 02:15:11;;;;;;;5.03;2.35;;;;;;;-1.24;74.82;100434.63;1708985;82;21381;-71
2021/03/06 02:17:53;;;;;;;5.67;2.87;;;;;;;-1.25;74.93;100433.78;1720855;82;21124;-70
2021/03/06 02:20:47;;;;;;;5.72;2.98;;;;;;;-1.27;74.85;100433.41;1717846;82;21952;-70
2021/03/06 02:23:50;;;;;;;5.30;2.72;;;;;;;-1.28;74.79;100442.92;1730374;81;21089;-71
2021/03/06 02:26:27;;;;;;;5.50;3.00;;;;;;;-1.28;74.77;100449.40;1736116;82;21514;-71
2021/03/06 02:29:28;;;;;;;5.45;3.22;;;;;;;-1.29;74.69;100459.81;1747754;82;21077;-71
2021/03/06 02:31:56;;;;;;;7.40;3.60;;;;;;;-1.29;74.63;100459.37;1717224;82;21357;-70
2021/03/06 02:34:29;;;;;;;6.20;3.35;;;;;;;-1.26;74.57;100461.86;1699204;82;22190;-71
2021/03/06 02:37:00;;;;;;;6.58;3.42;;;;;;;-1.24;74.46;100469.16;1702838;82;21525;-71
2021/03/06 02:39:28;;;;;;;6.00;3.70;;;;;;;-1.24;74.37;100469.61;1734600;82;21583;-71
2021/03/06 02:41:56;;;;;;;4.65;2.60;;;;;;;-1.23;74.32;100482.97;1676324;82;21057;-72
2021/03/06 02:44:26;;;;;;;5.53;2.90;;;;;;;-1.26;74.31;100483.88;1737404;82;21064;-72
2021/03/06 02:46:56;;;;;;;7.12;3.30;;;;;;;-1.29;74.27;100480.09;1684842;82;21948;-70
2021/03/06 02:49:25;;;;;;;4.97;3.17;;;;;;;-1.33;73.79;100488.02;1718025;83;21097;-70
2021/03/06 02:51:53;;;;;;;6.03;3.75;;;;;;;-1.35;73.55;100480.70;1717386;82;21378;-71
2021/03/06 02:54:22;;;;;;;6.03;2.98;;;;;;;-1.37;73.27;100483.80;1722319;82;21108;-70
2021/03/06 02:56:50;;;;;;;5.95;3.47;;;;;;;-1.38;73.07;100492.02;1736957;82;21460;-71
2021/03/06 02:59:39;;;;;;;4.47;2.70;;;;;;;-1.37;72.91;100491.13;1729360;81;22035;-71
2021/03/06 03:02:44;;;;;;;5.58;3.40;;;;;;;-1.37;72.62;100498.89;1719653;82;21077;-70
2021/03/06 03:05:21;;;;;;;5.40;3.08;;;;;;;-1.38;72.52;100504.97;1710116;83;21371;-70
2021/03/06 03:08:10;;;;;;;7.28;3.80;;;;;;;-1.37;72.21;100511.84;1705997;83;21132;-71
2021/03/06 03:10:41;;;;;;;7.47;4.15;;;;;;;-1.37;71.97;100509.25;1730838;80;21105;-73
2021/03/06 03:13:41;;;;;;;5.30;3.37;;;;;;;-1.36;71.80;100516.13;1711672;80;22394;-78
2021/03/06 03:16:21;;;;;;;7.50;3.45;;;;;;;-1.34;71.67;100522.15;1752470;80;21104;-71
2021/03/06 03:19:01;;;;;;;5.72;3.33;;;;;;;-1.34;71.24;100524.73;1759746;81;21128;-70
2021/03/06 03:21:29;;;;;;;4.67;2.77;;;;;;;-1.35;71.12;100519.58;1759697;81;22614;-70
2021/03/06 03:24:17;;;;;;;4.75;3.15;;;;;;;-1.35;70.83;100520.45;1753824;81;21521;-70
2021/03/06 03:26:47;;;;;;;7.55;3.50;;;;;;;-1.36;70.47;100523.91;1749170;81;22071;-70
2021/03/06 03:29:16;;;;;;;5.85;3.27;;;;;;;-1.35;70.42;100539.00;1738356;82;21085;-71
2021/03/06 03:31:47;;;;;;;5.30;2.87;;;;;;;-1.37;70.21;100544.23;1736452;80;21361;-71
2021/03/06 03:34:17;;;;;;;4.50;2.30;;;;;;;-1.37;70.07;100546.83;1726480;82;21037;-72
2021/03/06 03:36:47;;;;;;;5.62;3.02;;;;;;;-1.39;69.68;100542.14;1729610;81;21077;-71
2021/03/06 03:39:15;;;;;;;6.90;3.00;;;;;;;-1.42;69.67;100534.46;1688936;83;22041;-70
2021/03/06 03:41:45;;;;;;;4.10;2.70;;;;;;;-1.42;69.44;100537.05;1727655;83;21094;-71
2021/03/06 03:44:14;;;;;;;4.58;2.55;;;;;;;-1.43;69.33;100539.69;1740465;81;21057;-70
2021/03/06 03:46:42;;;;;;;4.30;2.98;;;;;;;-1.47;69.24;100544.09;1705823;82;21135;-70
2021/03/06 03:49:18;;;;;;;4.35;2.75;;;;;;;-1.50;69.04;100546.32;1750878;82;21410;-71
2021/03/06 03:51:47;;;;;;;4.72;2.62;;;;;;;-1.53;68.66;100536.50;1751191;82;22062;-70
2021/03/06 03:54:16;;;;;;;4.92;2.40;;;;;;;-1.54;68.71;100540.84;1734450;82;21088;-70
2021/03/06 03:56:44;;;;;;;6.30;2.20;;;;;;;-1.54;68.48;100543.88;1731481;81;21052;-70
2021/03/06 03:59:12;;;;;;;4.70;2.52;;;;;;;-1.56;68.35;100543.89;1685028;82;21078;-71
2021/03/06 04:01:44;;;;;;;5.30;2.37;;;;;;;-1.57;68.02;100550.41;1684402;83;21488;-70
2021/03/06 04:04:30;;;;;;;3.62;2.10;;;;;;;-1.57;67.82;100547.38;1699182;83;22071;-70
2021/03/06 04:07:01;;;;;;;3.98;2.30;;;;;;;-1.58;67.70;100556.48;1709098;83;21166;-69
2021/03/06 04:09:31;;;;;;;4.45;2.50;;;;;;;-1.61;67.49;100555.28;1701163;83;21560;-69
2021/03/06 04:11:59;;;;;;;10.05;6.90;;;;;;;-1.64;66.91;100556.63;1721736;83;21522;-69
2021/03/06 04:14:27;;;;;;;13.50;9.68;;;;;;;-1.67;66.93;100553.69;1711240;83;21067;-70
2021/03/06 04:16:55;;;;;;;10.53;7.03;;;;;;;-1.70;66.96;100559.41;1711945;83;21880;-70
2021/03/06 04:19:23;;;;;;;11.45;6.62;;;;;;;-1.71;66.98;100554.67;1699248;83;21085;-70
2021/03/06 04:21:50;;;;;;;4.75;3.22;;;;;;;-1.72;66.85;100556.86;1692926;83;21163;-70
2021/03/06 04:24:18;;;;;;;3.58;2.17;;;;;;;-1.74;66.86;100554.31;1686802;83;21187;-70
2021/03/06 04:26:50;;;;;;;5.60;3.47;;;;;;;-1.78;66.72;100569.51;1703964;83;21073;-71
2021/03/06 04:29:22;;;;;;;4.78;2.87;;;;;;;-1.79;66.76;100572.14;1701580;83;21901;-71
2021/03/06 04:31:50;;;;;;;12.73;6.97;;;;;;;-1.83;66.86;100576.56;1715333;82;21139;-71
2021/03/06 04:34:19;;;;;;;9.48;6.15;;;;;;;-1.85;66.67;100569.25;1699757;83;20990;-71
2021/03/06 04:36:47;;;;;;;5.05;3.05;;;;;;;-1.88;66.75;100578.84;1715656;82;21075;-71
2021/03/06 04:39:15;;;;;;;5.40;2.77;;;;;;;-1.91;66.74;100576.34;1703129;83;21104;-71
2021/03/06 04:41:43;;;;;;;8.13;4.50;;;;;;;-1.94;66.58;100578.54;1687074;83;22172;-71
2021/03/06 04:44:13;;;;;;;14.55;8.05;;;;;;;-1.95;66.68;100577.29;1695373;83;21562;-69
2021/03/06 04:46:40;;;;;;;8.30;3.50;;;;;;;-1.97;66.67;100581.21;1717768;83;21127;-70
2021/03/06 04:49:08;;;;;;;6.67;3.15;;;;;;;-2.00;66.56;100578.71;1705628;83;21187;-71
2021/03/06 04:51:36;;;;;;;48.55;27.35;;;;;;;-2.03;66.52;100582.23;1714509;83;21112;-70
2021/03/06 04:54:05;;;;;;;25.27;14.28;;;;;;;-2.07;66.45;100583.17;1702866;83;21907;-69
2021/03/06 04:56:33;;;;;;;7.70;4.22;;;;;;;-2.08;66.51;100584.52;1705208;83;21095;-70
2021/03/06 04:59:01;;;;;;;6.28;3.37;;;;;;;-2.11;66.61;100589.77;1720225;82;21508;-70
2021/03/06 05:01:29;;;;;;;5.08;2.83;;;;;;;-2.14;66.48;100591.97;1748290;80;21324;-70
2021/03/06 05:03:58;;;;;;;5.05;3.20;;;;;;;-2.15;66.64;100596.73;1741287;81;21029;-70
2021/03/06 05:06:27;;;;;;;12.95;6.33;;;;;;;-2.15;66.60;100602.36;1724255;80;21687;-70
2021/03/06 05:08:55;;;;;;;15.15;8.08;;;;;;;-2.15;66.65;100603.20;1748200;82;21192;-70
2021/03/06 05:11:23;;;;;;;7.15;3.75;;;;;;;-2.15;66.46;100608.38;1738042;82;21153;-70
2021/03/06 05:13:51;;;;;;;7.40;4.22;;;;;;;-2.17;66.35;100617.08;1737191;82;21116;-69
2021/03/06 05:16:18;;;;;;;5.35;2.98;;;;;;;-2.21;65.53;100624.52;1743706;80;21176;-69
2021/03/06 05:18:46;;;;;;;4.25;2.45;;;;;;;-2.22;65.33;100629.25;1726214;81;22086;-71
2021/03/06 05:21:14;;;;;;;4.20;2.30;;;;;;;-2.23;65.15;100639.20;1730214;82;21120;-71
2021/03/06 05:23:42;;;;;;;3.80;2.45;;;;;;;-2.23;64.89;100643.08;1740417;80;21136;-70
2021/03/06 05:26:10;;;;;;;4.45;2.10;;;;;;;-2.22;64.54;100652.54;1724640;82;21187;-70
2021/03/06 05:28:37;;;;;;;4.22;2.10;;;;;;;-2.22;64.29;100653.42;1747280;82;20891;-70
2021/03/06 05:31:06;;;;;;;4.60;2.42;;;;;;;-2.22;63.67;100656.01;1747173;81;22917;-71
2021/03/06 05:33:34;;;;;;;3.87;2.35;;;;;;;-2.21;63.94;100662.03;1734472;81;21081;-70
2021/03/06 05:36:05;;;;;;;5.45;2.75;;;;;;;-2.18;63.68;100670.56;1728508;81;21762;-71
2021/03/06 05:38:33;;;;;;;3.95;2.40;;;;;;;-2.16;63.77;100666.64;1732059;82;21089;-69
2021/03/06 05:41:01;;;;;;;5.67;2.80;;;;;;;-2.15;63.11;100669.19;1740831;82;21117;-70
2021/03/06 05:43:30;;;;;;;4.97;2.47;;;;;;;-2.14;62.99;100680.39;1748206;82;22043;-70
2021/03/06 05:45:58;;;;;;;4.67;2.42;;;;;;;-2.12;62.97;100681.23;1738410;82;21144;-70
2021/03/06 05:48:26;;;;;;;4.60;2.25;;;;;;;-2.11;62.72;100679.05;1720144;82;21065;-69
2021/03/06 05:50:54;;;;;;;4.60;2.27;;;;;;;-2.09;62.28;100688.92;1749739;82;21524;-70
2021/03/06 05:53:22;;;;;;;2.87;1.70;;;;;;;-2.09;62.41;100694.09;1714191;83;21120;-70
2021/03/06 05:55:52;;;;;;;3.92;2.30;;;;;;;-2.07;62.21;100697.50;1714134;82;22072;-69
2021/03/06 05:58:21;;;;;;;2.98;1.87;;;;;;;-2.06;61.67;100705.66;1734883;80;21129;-69
2021/03/06 06:00:49;;;;;;;5.50;2.60;;;;;;;-2.06;61.32;100705.22;1761867;81;21180;-70
2021/03/06 06:03:21;;;;;;;4.85;1.92;;;;;;;-2.06;61.09;100709.55;1738224;81;21121;-71
2021/03/06 06:05:52;;;;;;;3.40;1.70;;;;;;;-2.04;61.06;100720.71;1735438;81;21140;-71
2021/03/06 06:08:19;;;;;;;3.65;1.70;;;;;;;-2.00;60.92;100722.80;1721982;81;22121;-72
2021/03/06 06:10:48;;;;;;;5.03;1.87;;;;;;;-1.97;60.47;100724.87;1747674;81;21156;-70
2021/03/06 06:13:17;;;;;;;3.20;1.65;;;;;;;-1.94;60.21;100727.83;1736080;80;21082;-70
2021/03/06 06:15:46;;;;;;;2.10;1.40;;;;;;;-1.95;60.00;100733.89;1735719;81;21073;-72
2021/03/06 06:18:15;;;;;;;3.55;1.37;;;;;;;-1.97;60.06;100734.38;1761245;81;21097;-70
2021/03/06 06:20:44;;;;;;;2.52;1.35;;;;;;;-1.97;59.75;100734.38;1725643;82;22808;-70
2021/03/06 06:23:16;;;;;;;3.50;2.12;;;;;;;-2.01;59.51;100736.20;1756772;81;21571;-69
2021/03/06 06:25:47;;;;;;;2.95;1.70;;;;;;;-2.09;59.45;100735.06;1751689;81;21120;-70
2021/03/06 06:28:17;;;;;;;4.15;1.62;;;;;;;-2.12;59.48;100736.43;1762981;81;21068;-76
2021/03/06 06:31:10;;;;;;;3.12;1.40;;;;;;;-2.10;59.68;100743.72;1754562;81;21092;-73
2021/03/06 06:33:39;;;;;;;6.50;2.53;;;;;;;-2.08;59.51;100746.27;1707881;82;22048;-73
2021/03/06 06:36:06;;;;;;;4.35;1.98;;;;;;;-2.05;59.36;100756.54;1736648;82;22583;-73
2021/03/06 06:38:42;;;;;;;4.00;2.12;;;;;;;-2.04;59.18;100765.56;1746086;81;21072;-73
2021/03/06 06:41:10;;;;;;;3.10;1.37;;;;;;;-2.05;58.65;100763.01;1762995;81;21188;-73
2021/03/06 06:43:38;;;;;;;1.90;1.35;;;;;;;-2.08;58.48;100761.79;1765350;81;21623;-72
2021/03/06 06:46:06;;;;;;;2.10;1.20;;;;;;;-2.09;57.85;100767.86;1767447;80;22068;-72
2021/03/06 06:48:37;;;;;;;4.03;1.80;;;;;;;-2.11;57.65;100761.42;1740718;81;21133;-73
2021/03/06 06:51:12;;;;;;;2.37;1.45;;;;;;;-2.16;57.79;100764.53;1735752;79;21140;-73
2021/03/06 06:53:39;;;;;;;3.33;1.32;;;;;;;-2.13;57.40;100770.08;1735187;81;21139;-71
2021/03/06 06:56:25;;;;;;;3.58;1.30;;;;;;;-2.15;57.30;100772.70;1736802;81;21065;-72
2021/03/06 06:59:08;;;;;;;2.10;0.88;;;;;;;-2.12;57.71;100773.95;1736150;82;22844;-71
2021/03/06 07:01:37;;;;;;;1.72;1.00;;;;;;;-2.03;56.57;100775.47;1767197;81;21084;-73
2021/03/06 07:04:10;;;;;;;2.72;1.27;;;;;;;-2.07;56.33;100774.69;1767501;80;21069;-72
2021/03/06 07:06:39;;;;;;;1.17;0.90;;;;;;;-2.09;56.50;100779.06;1766167;80;21125;-73
2021/03/06 07:09:13;;;;;;;2.20;1.00;;;;;;;-2.08;56.47;100776.02;1748254;81;21132;-71
2021/03/06 07:11:43;;;;;;;1.92;1.30;;;;;;;-2.08;56.32;100778.17;1732281;81;21120;-71
2021/03/06 07:14:11;;;;;;;4.35;1.60;;;;;;;-2.07;56.22;100780.31;1767423;81;21149;-71
2021/03/06 07:17:00;;;;;;;2.83;1.20;;;;;;;-2.01;56.21;100780.20;1767425;80;21133;-72
2021/03/06 07:19:32;;;;;;;5.03;1.37;;;;;;;-1.94;56.38;100783.04;1758484;79;21118;-74
2021/03/06 07:22:00;;;;;;;3.45;1.55;;;;;;;-1.92;55.61;100780.45;1751175;81;21128;-69
2021/03/06 07:24:28;;;;;;;2.43;1.30;;;;;;;-1.92;55.72;100776.56;1752858;81;22805;-71
2021/03/06 07:26:57;;;;;;;3.08;1.47;;;;;;;-1.88;55.23;100780.77;1759319;80;21149;-72
2021/03/06 07:29:26;;;;;;;3.47;1.50;;;;;;;-1.90;54.51;100793.75;1760758;81;21465;-74
2021/03/06 07:31:56;;;;;;;2.62;1.50;;;;;;;-1.89;54.67;100788.13;1735111;82;21528;-73
2021/03/06 07:34:27;;;;;;;3.42;1.52;;;;;;;-1.85;54.97;100797.08;1691516;84;21074;-72
2021/03/06 07:36:59;;;;;;;3.15;1.60;;;;;;;-1.75;55.35;100804.20;1757680;80;22068;-77
2021/03/06 07:39:27;;;;;;;3.98;1.62;;;;;;;-1.72;54.09;100801.57;1766096;80;21203;-72
2021/03/06 07:41:57;;;;;;;2.80;1.45;;;;;;;-1.74;54.10;100793.84;1750672;81;21087;-78
2021/03/06 07:44:25;;;;;;;6.30;1.75;;;;;;;-1.69;54.05;100796.76;1722188;82;21065;-73
2021/03/06 07:46:54;;;;;;;3.02;1.72;;;;;;;-1.65;53.95;100800.97;1714175;81;21092;-72
2021/03/06 07:49:27;;;;;;;4.20;2.30;;;;;;;-1.59;54.42;100798.25;1762024;81;21893;-72
2021/03/06 07:51:57;;;;;;;3.50;1.87;;;;;;;-1.50;54.51;100805.37;1737158;82;21094;-72
2021/03/06 07:54:25;;;;;;;3.98;1.92;;;;;;;-1.45;54.07;100806.54;1736801;82;21057;-72
2021/03/06 07:56:54;;;;;;;4.25;2.37;;;;;;;-1.39;54.28;100802.53;1738350;81;21410;-72
2021/03/06 07:59:50;;;;;;;3.72;1.98;;;;;;;-1.31;54.50;100803.20;1739366;81;21095;-72
2021/03/06 08:02:38;;;;;;;4.47;1.52;;;;;;;-1.21;54.25;100811.16;1736671;81;22228;-73
2021/03/06 08:05:19;;;;;;;6.03;2.02;;;;;;;-1.19;53.46;100799.02;1753605;81;21068;-73
2021/03/06 08:07:55;;;;;;;3.50;1.93;;;;;;;-1.07;53.98;100811.26;1866357;74;27816;-77
2021/03/06 08:10:25;;;;;;;2.60;1.55;;;;;;;-1.01;53.10;100808.52;1858394;77;21057;-73
2021/03/06 08:12:53;;;;;;;2.50;1.40;;;;;;;-1.04;52.69;100809.46;1780895;80;22085;-73
2021/03/06 08:15:32;;;;;;;3.62;1.60;;;;;;;-1.07;52.44;100813.41;1765266;79;21469;-73
2021/03/06 08:18:01;;;;;;;4.20;1.92;;;;;;;-1.10;52.42;100815.23;1783337;80;21095;-73
2021/03/06 08:20:31;;;;;;;4.30;1.75;;;;;;;-1.17;52.45;100812.78;1774222;80;21132;-74
2021/03/06 08:23:22;;;;;;;3.20;1.90;;;;;;;-1.22;51.87;100816.39;1772029;80;21123;-75
2021/03/06 08:26:22;;;;;;;5.05;2.05;;;;;;;-1.23;52.21;100822.46;1774295;80;22059;-75
2021/03/06 08:28:50;;;;;;;3.87;1.90;;;;;;;-1.21;51.66;100826.71;1761518;80;21124;-74
2021/03/06 08:31:38;;;;;;;2.77;1.72;;;;;;;-1.25;51.47;100822.95;1777434;80;21128;-74
2021/03/06 08:34:30;;;;;;;3.55;1.92;;;;;;;-1.22;51.55;100821.13;1756298;80;21105;-76
2021/03/06 08:40:09;;;;;;;3.90;1.60;;;;;;;-1.12;51.75;100836.02;1788908;78;22816;-76
2021/03/06 08:42:55;;;;;;;4.97;1.70;;;;;;;-1.07;51.97;100841.92;1807786;78;21110;-74
2021/03/06 08:45:26;;;;;;;2.77;1.33;;;;;;;-1.04;51.64;100846.20;1790686;78;21070;-75
2021/03/06 08:47:58;;;;;;;3.05;1.60;;;;;;;-1.07;50.78;100848.84;1759949;80;21050;-72
2021/03/06 08:50:27;;;;;;;4.08;1.70;;;;;;;-1.08;51.27;100853.63;1803844;78;21129;-72
2021/03/06 08:53:08;;;;;;;3.33;1.80;;;;;;;-1.05;51.79;100862.65;1800798;78;22156;-73
2021/03/06 08:55:40;;;;;;;3.22;1.60;;;;;;;-1.05;51.13;100858.31;1804855;78;21078;-72
2021/03/06 08:58:10;;;;;;;3.30;1.60;;;;;;;-0.98;51.31;100861.14;1790056;80;21157;-71
2021/03/06 09:00:49;;;;;;;3.65;1.70;;;;;;;-0.92;50.34;100858.41;1790315;80;21126;-71
2021/03/06 09:06:02;;;;;;;2.90;1.40;;;;;;;-0.81;50.80;100856.00;1847150;76;29037;-70
2021/03/06 09:08:30;;;;;;;2.77;1.35;;;;;;;-0.82;50.75;100859.04;1817722;76;21052;-70
2021/03/06 09:11:00;;;;;;;3.12;1.60;;;;;;;-0.73;50.85;100860.55;1809364;78;22049;-71
2021/03/06 09:13:31;;;;;;;3.20;1.55;;;;;;;-0.70;50.86;100866.50;1834843;78;21147;-69
2021/03/06 09:16:01;;;;;;;2.77;1.60;;;;;;;-0.65;50.25;100865.95;1836780;77;21044;-72
2021/03/06 09:18:35;;;;;;;2.70;1.35;;;;;;;-0.58;51.26;100874.41;1823230;78;21131;-73
2021/03/06 09:21:15;;;;;;;5.10;1.90;;;;;;;-0.47;50.31;100873.72;1837823;78;21045;-76
2021/03/06 09:23:44;;;;;;;2.77;1.50;;;;;;;-0.37;50.45;100875.62;1821211;78;22067;-75
2021/03/06 09:26:17;;;;;;;3.52;1.42;;;;;;;-0.21;50.23;100875.60;1832185;78;21055;-74
2021/03/06 09:28:49;;;;;;;;;;;;;;;-0.07;49.76;100886.92;1836836;77;21170;-74
2021/03/06 09:31:26;;;;;;;5.30;1.62;;;;;;;0.04;50.05;100886.62;1807483;78;20270;-74
2021/03/06 09:33:56;;;;;;;3.35;1.60;;;;;;;0.21;49.54;100893.05;1808162;78;21178;-75
2021/03/06 09:36:26;;;;;;;3.62;1.32;;;;;;;0.25;48.35;100892.51;1805976;78;22135;-75
2021/03/06 09:38:56;;;;;;;3.75;1.15;;;;;;;0.19;48.75;100886.17;1808919;78;21170;-76
2021/03/06 09:41:38;;;;;;;1.92;1.10;;;;;;;0.25;49.67;100899.85;1837289;77;21186;-74
2021/03/06 09:44:07;;;;;;;5.47;1.20;;;;;;;0.34;48.81;100896.14;1808007;78;21167;-77
2021/03/06 09:46:37;;;;;;;1.55;1.10;;;;;;;0.44;48.55;100904.07;1808348;78;21115;-72
2021/03/06 09:51:53;;;;;;;1.80;0.90;;;;;;;0.50;47.43;100894.81;1803912;78;29227;-74
2021/03/06 09:54:22;;;;;;;2.00;1.10;;;;;;;0.49;47.85;100893.56;1790347;80;21175;-75
2021/03/06 09:56:59;;;;;;;1.92;1.12;;;;;;;0.64;47.96;100905.23;1794803;78;22053;-75
2021/03/06 09:59:28;;;;;;;1.80;1.07;;;;;;;0.78;47.20;100896.58;1793977;78;21176;-74
2021/03/06 10:02:07;;;;;;;2.45;1.00;;;;;;;0.90;46.89;100900.09;1771164;80;21200;-74
2021/03/06 10:04:35;;;;;;;1.55;1.00;;;;;;;1.13;48.58;100904.11;1770463;81;21180;-73
2021/03/06 10:07:09;;;;;;;2.15;1.22;;;;;;;1.47;46.29;100903.47;1771220;81;21133;-74
2021/03/06 10:09:37;;;;;;;;;;;;;;;1.56;45.77;100907.92;1773739;81;21905;-74
2021/03/06 10:12:15;;;;;;;1.70;0.93;;;;;;;1.64;45.81;100900.70;1771495;78;20774;-77
2021/03/06 10:14:48;;;;;;;2.67;0.88;;;;;;;1.79;44.59;100904.97;1790355;80;21485;-75
2021/03/06 10:17:24;;;;;;;2.02;0.80;;;;;;;1.91;44.97;100900.63;1725527;82;21175;-76
2021/03/06 10:19:54;;;;;;;1.67;1.07;;;;;;;2.05;43.01;100901.46;1725233;83;21664;-74
2021/03/06 10:22:22;;;;;;;1.90;0.90;;;;;;;2.14;42.82;100900.67;1725496;83;22064;-74
2021/03/06 10:25:06;;;;;;;2.00;0.95;;;;;;;2.29;43.82;100903.16;1746448;81;21167;-71
2021/03/06 10:27:41;;;;;;;2.33;1.30;;;;;;;2.35;41.63;100891.67;1755000;81;21216;-73
2021/03/06 10:30:26;;;;;;;1.52;1.00;;;;;;;2.38;40.76;100890.23;1755345;81;21148;-72
2021/03/06 10:33:01;;;;;;;1.75;1.15;;;;;;;2.44;42.65;100897.39;1765115;81;21141;-72
2021/03/06 10:35:42;;;;;;;3.37;1.77;;;;;;;2.61;41.49;100891.55;1765038;81;22061;-71
2021/03/06 10:38:12;;;;;;;4.92;1.80;;;;;;;2.62;41.32;100894.55;1765005;81;21220;-71
2021/03/06 10:40:47;;;;;;;5.25;1.60;;;;;;;2.69;42.49;100902.97;1765140;81;21394;-72
2021/03/06 10:43:33;;;;;;;2.85;1.45;;;;;;;2.91;41.62;100897.78;1765034;81;21510;-71
2021/03/06 10:46:25;;;;;;;2.70;1.40;;;;;;;2.96;40.88;100894.52;1765109;81;21206;-71
2021/03/06 10:49:00;;;;;;;2.52;1.40;;;;;;;3.22;41.70;100894.33;1765218;81;21558;-70
2021/03/06 10:51:49;;;;;;;1.92;1.00;;;;;;;3.47;40.63;100899.38;1748131;81;21187;-71
2021/03/06 10:54:16;;;;;;;1.77;1.10;;;;;;;3.62;39.08;100901.81;1684350;85;21194;-71
2021/03/06 10:56:45;;;;;;;5.47;2.35;;;;;;;3.68;38.99;100895.04;1684322;84;21257;-72
2021/03/06 10:59:14;;;;;;;3.15;2.00;;;;;;;3.59;36.92;100893.66;1701346;84;21428;-72
2021/03/06 11:01:48;;;;;;;2.60;1.30;;;;;;;3.32;36.41;100893.50;1646731;85;22710;-71
2021/03/06 11:04:31;;;;;;;2.65;1.10;;;;;;;3.09;37.17;100891.37;1698247;82;21201;-72
2021/03/06 11:07:01;;;;;;;2.12;1.20;;;;;;;3.01;37.28;100884.77;1711958;83;21160;-72
2021/03/06 11:12:20;;;;;;;2.90;1.15;;;;;;;3.29;37.46;100890.57;1872458;75;29281;-76
2021/03/06 11:15:15;;;;;;;2.58;1.47;;;;;;;3.27;37.14;100883.23;1840391;78;21127;-73
2021/03/06 11:17:45;;;;;;;2.42;1.32;;;;;;;3.30;37.69;100885.73;1833379;78;22089;-74
2021/03/06 11:20:16;;;;;;;1.37;0.90;;;;;;;3.47;37.60;100878.48;1792754;78;21163;-73
2021/03/06 11:22:45;;;;;;;2.17;1.10;;;;;;;3.66;35.46;100885.94;1821443;78;21538;-74
2021/03/06 11:25:15;;;;;;;2.27;1.05;;;;;;;3.76;36.46;100878.55;1811756;77;22210;-74
2021/03/06 11:27:54;;;;;;;1.22;0.80;;;;;;;3.85;36.47;100878.16;1813750;78;21084;-77
2021/03/06 11:30:39;;;;;;;3.02;1.30;;;;;;;3.97;36.36;100879.41;1830076;78;22899;-73
2021/03/06 11:33:10;;;;;;;1.42;0.90;;;;;;;4.18;36.98;100874.98;1837425;78;21582;-73
2021/03/06 11:35:39;;;;;;;1.55;0.93;;;;;;;4.55;36.45;100875.47;1825901;78;21112;-72
2021/03/06 11:38:08;;;;;;;2.37;1.02;;;;;;;4.82;36.29;100878.07;1808945;78;21104;-73
2021/03/06 11:40:40;;;;;;;2.25;0.90;;;;;;;5.03;35.64;100876.22;1808498;78;21645;-74
2021/03/06 11:43:08;;;;;;;1.80;0.70;;;;;;;5.22;33.77;100877.95;1806360;79;22046;-75
2021/03/06 11:45:36;;;;;;;1.87;0.90;;;;;;;5.24;32.76;100872.16;1758680;80;21196;-75
2021/03/06 11:48:08;;;;;;;1.57;0.72;;;;;;;5.32;33.74;100870.86;1741262;82;21157;-74
2021/03/06 11:50:40;;;;;;;1.72;0.82;;;;;;;5.39;33.89;100864.84;1752453;81;21121;-76
2021/03/06 11:53:07;;;;;;;1.90;0.90;;;;;;;5.41;33.72;100868.25;1752853;81;21104;-73
2021/03/06 11:55:36;;;;;;;1.72;0.80;;;;;;;5.48;34.29;100872.70;1708227;83;21962;-74
2021/03/06 11:58:04;;;;;;;1.75;0.80;;;;;;;5.75;34.58;100868.68;1748339;81;21086;-74
2021/03/06 12:00:35;;;;;;;1.12;0.75;;;;;;;6.11;33.90;100868.58;1750677;82;21048;-74